Latest Weather Observations for Canberra

IDN60801

Issued at 11:32 pm EDT Friday 15 November 2019 (issued every 10 minutes, with the page automatically refreshed every 10 minutes)

About weather observations | Map of weather stations | Latest weather observations for NSW | Other Formats
Station Details ID: 070351 Name: CANBERRA AIRPORT Lat: -35.31 Lon: 149.20 Height: 577.05 m
Data from the previous 72 hours. | See also: Recent months at Canberra
Date/Time
EDT
Temp
°C
App
Temp
°C
Dew
Point
°C
Rel
Hum
%
Delta-T
°C
Wind Press
QNH
hPa
Press
MSL
hPa
Rain since
9am
mm
Dir  Spd
km/h
Gust
km/h
Spd
kts
Gust
kts
15/11:30pm 14.4 11.2 1.0 40 5.9 NW 7 11 4 6 1013.4 1012.0 0.0
15/11:00pm 16.7 11.7 1.6 36 6.9 WNW 17 22 9 12 1013.2 1011.8 0.0
15/10:30pm 17.3 11.0 1.3 34 7.3 W 24 33 13 18 1013.0 1011.5 0.0
15/10:00pm 17.4 10.6 1.0 33 7.5 W 26 33 14 18 1012.9 1011.4 0.0
15/09:30pm 17.8 12.7 0.9 32 7.7 WNW 17 20 9 11 1012.7 1011.2 0.0
15/09:00pm 18.1 12.6 0.7 31 7.9 WNW 19 26 10 14 1012.3 1010.9 0.0
15/08:30pm 18.3 12.4 -0.5 28 8.4 WNW 20 26 11 14 1011.9 1010.5 0.0
15/08:00pm 19.1 13.8 -0.3 27 8.7 WNW 17 24 9 13 1011.5 1010.0 0.0
15/07:30pm 19.9 13.6 -1.2 24 9.4 WNW 22 33 12 18 1011.1 1009.6 0.0
15/07:00pm 21.3 13.2 -3.2 19 10.6 WNW 30 39 16 21 1010.4 1009.0 0.0
15/06:30pm 22.5 15.2 -3.0 18 11.2 WNW 26 37 14 20 1009.7 1008.2 0.0
15/06:00pm 22.9 14.8 -3.4 17 11.5 WNW 30 44 16 24 1009.4 1007.9 0.0
15/05:54pm 23.0 15.3 -3.3 17 11.5 WNW 28 46 15 25 1009.4 1007.9 0.0
15/05:30pm 23.4 15.6 -3.8 16 11.9 WNW 28 43 15 23 1009.1 1007.6 0.0
15/05:00pm 23.9 15.6 -1.8 18 11.7 NW 32 41 17 22 1009.1 1007.6 0.0
15/04:47pm 23.8 15.4 -1.2 19 11.5 NW 33 52 18 28 1009.2 1007.7 0.0
15/04:30pm 24.0 15.9 -0.3 20 11.4 NW 32 43 17 23 1009.1 1007.6 0.0
15/04:00pm 24.0 16.3 -0.3 20 11.4 W 30 44 16 24 1009.3 1007.8 0.0
15/03:37pm 25.0 16.7 -1.7 17 12.3 W 32 52 17 28 1009.2 1007.7 0.0
15/03:30pm 23.7 15.2 -2.0 18 11.6 WNW 33 48 18 26 1009.3 1007.8 0.0
15/03:00pm 24.3 15.5 -1.5 18 11.9 WNW 35 50 19 27 1009.3 1007.8 0.0
15/02:38pm 24.5 15.7 -1.3 18 11.9 NW 35 61 19 33 1009.4 1007.9 0.0
15/02:30pm 24.5 15.5 0.1 20 11.5 WNW 37 48 20 26 1009.4 1007.9 0.0
15/02:27pm 24.5 15.0 -0.6 19 11.7 WNW 39 52 21 28 1009.4 1007.9 0.0
15/02:05pm 24.9 15.5 -0.3 19 11.9 NW 39 57 21 31 1009.5 1008.0 0.0
15/02:00pm 24.1 14.2 -0.9 19 11.6 NW 41 56 22 30 1009.6 1008.1 0.0
15/01:35pm 23.9 14.6 0.3 21 11.2 WNW 39 57 21 31 1009.6 1008.1 0.0
15/01:30pm 24.2 14.6 1.2 22 11.1 NW 41 57 22 31 1009.6 1008.1 0.0
15/01:17pm 24.5 16.3 2.6 24 10.8 WNW 35 56 19 30 1009.7 1008.2 0.0
15/01:00pm 23.3 13.4 1.6 24 10.5 NW 43 57 23 31 1009.9 1008.4 0.0
15/12:30pm 23.9 14.6 2.7 25 10.5 WNW 41 59 22 32 1010.0 1008.5 0.0
15/12:14pm 22.5 14.0 0.9 24 10.2 WNW 35 54 19 29 1010.3 1008.9 0.0
15/12:00pm 23.1 14.7 1.5 24 10.4 WNW 35 50 19 27 1010.8 1009.3 0.0
15/11:47am 22.8 15.4 1.8 25 10.1 WNW 30 50 16 27 1011.0 1009.5 0.0
15/11:30am 22.5 15.0 3.6 29 9.4 NW 32 48 17 26 1011.2 1009.7 0.0
15/11:24am 22.3 15.5 2.9 28 9.5 WNW 28 48 15 26 1011.2 1009.7 0.0
15/11:00am 21.4 15.1 3.6 31 8.8 WNW 26 35 14 19 1011.5 1010.0 0.0
15/10:30am 19.7 13.7 3.4 34 7.9 WNW 24 35 13 19 1011.9 1010.5 0.0
15/10:02am 19.0 12.2 3.2 35 7.6 NW 28 46 15 25 1012.0 1010.6 0.0
15/10:00am 19.2 12.5 3.8 36 7.5 WNW 28 43 15 23 1012.0 1010.6 0.0
15/09:30am 18.4 12.5 3.8 38 7.1 WNW 24 33 13 18 1012.2 1010.8 0.0
15/09:00am 17.2 12.2 4.5 43 6.2 WNW 20 28 11 15 1012.3 1010.9 0.0
15/08:30am 16.4 11.9 4.4 45 5.8 NW 17 26 9 14 1012.2 1010.8 0.0
15/08:00am 15.7 10.9 4.4 47 5.5 NW 19 30 10 16 1011.9 1010.5 0.0
15/07:30am 14.9 10.0 4.9 51 4.8 NNW 20 28 11 15 1011.8 1010.4 0.0
15/07:00am 13.9 9.0 5.0 55 4.3 NNW 20 28 11 15 1011.6 1010.1 0.0
15/06:30am 13.7 9.5 5.6 58 3.9 NW 17 26 9 14 1011.5 1010.0 0.0
15/06:00am 12.6 8.6 4.8 59 3.7 N 15 20 8 11 1011.4 1009.9 0.0
15/05:30am 12.1 7.7 4.6 60 3.5 N 17 22 9 12 1011.4 1009.9 0.0
15/05:00am 13.1 9.1 4.8 57 4.0 NNW 15 17 8 9 1011.3 1009.8 0.0
15/04:30am 12.6 8.5 4.6 58 3.8 N 15 19 8 10 1011.4 1009.9 0.0
15/04:00am 13.8 10.2 4.9 55 4.3 NNE 13 20 7 11 1011.7 1010.3 0.0
15/03:30am 13.9 9.5 4.8 54 4.4 N 17 24 9 13 1011.7 1010.3 0.0
15/03:00am 13.5 9.8 4.6 55 4.2 N 13 17 7 9 1012.0 1010.6 0.0
15/02:30am 13.2 10.6 4.1 54 4.3 N 7 9 4 5 1012.3 1010.9 0.0
15/02:00am 13.4 9.7 4.6 55 4.2 NNW 13 15 7 8 1012.6 1011.1 0.0
15/01:30am 13.7 10.0 4.6 54 4.3 NW 13 15 7 8 1012.9 1011.4 0.0
15/01:00am 13.4 9.7 4.3 54 4.3 NW 13 15 7 8 1013.1 1011.6 0.0
15/12:30am 14.2 9.4 4.5 52 4.6 NW 19 22 10 12 1013.4 1012.0 0.0
15/12:00am 14.4 10.0 5.0 53 4.5 NW 17 19 9 10 1013.5 1012.1 0.0
 
Date/Time
EDT
Temp
°C
App
Temp
°C
Dew
Point
°C
Rel
Hum
%
Delta-T
°C
Wind Press
QNH
hPa
Press
MSL
hPa
Rain since
9am
mm
Dir  Spd
km/h
Gust
km/h
Spd
kts
Gust
kts
14/11:30pm 13.0 9.0 4.7 57 3.9 NNW 15 19 8 10 1013.7 1012.3 0.0
14/11:00pm 13.9 10.7 5.0 55 4.3 N 11 13 6 7 1013.9 1012.5 0.0
14/10:30pm 14.1 10.8 4.4 52 4.6 NNW 11 13 6 7 1014.0 1012.6 0.0
14/10:00pm 15.6 11.6 4.9 49 5.2 WNW 15 19 8 10 1014.1 1012.7 0.0
14/09:30pm 17.4 13.6 5.7 46 5.9 NW 15 19 8 10 1014.1 1012.7 0.0
14/09:00pm 17.7 13.0 5.0 43 6.3 WNW 19 26 10 14 1013.9 1012.5 0.0
14/08:30pm 17.9 13.0 5.2 43 6.3 W 20 33 11 18 1013.5 1012.1 0.0
14/08:00pm 18.2 12.8 4.7 41 6.7 W 22 32 12 17 1013.1 1011.6 0.0
14/07:30pm 18.9 12.4 4.7 39 7.0 WNW 28 35 15 19 1012.9 1011.4 0.0
14/07:00pm 19.8 14.8 4.7 37 7.5 WNW 20 32 11 17 1012.6 1011.1 0.0
14/06:30pm 21.1 16.1 4.6 34 8.3 WNW 20 32 11 17 1012.3 1010.9 0.0
14/06:00pm 20.8 14.6 4.4 34 8.2 WNW 26 37 14 20 1012.1 1010.7 0.0
14/05:30pm 21.4 14.9 4.5 33 8.5 WNW 28 39 15 21 1012.1 1010.7 0.0
14/05:00pm 22.2 15.3 4.7 32 8.9 WNW 30 43 16 23 1012.2 1010.8 0.0
14/04:30pm 22.9 15.1 4.9 31 9.2 WNW 35 50 19 27 1012.2 1010.8 0.0
14/04:00pm 23.1 15.2 4.1 29 9.6 WNW 35 50 19 27 1012.2 1010.8 0.0
14/03:34pm 23.6 16.2 4.0 28 9.9 WNW 32 50 17 27 1012.3 1010.9 0.0
14/03:30pm 23.6 16.2 4.0 28 9.9 WNW 32 41 17 22 1012.5 1011.0 0.0
14/03:21pm 23.7 16.1 4.1 28 9.9 WNW 33 52 18 28 1012.5 1011.0 0.0
14/03:00pm 23.0 14.9 3.5 28 9.7 WNW 35 52 19 28 1012.6 1011.1 0.0
14/02:30pm 24.0 16.3 3.3 26 10.3 WNW 33 50 18 27 1012.7 1011.2 0.0
14/02:07pm 23.9 16.9 4.3 28 10.0 WNW 30 48 16 26 1012.8 1011.3 0.0
14/02:00pm 23.1 15.6 3.6 28 9.8 NW 32 46 17 25 1012.9 1011.4 0.0
14/01:30pm 24.5 17.1 4.8 28 10.2 NW 33 48 18 26 1013.3 1011.9 0.0
14/01:00pm 22.6 15.2 4.2 30 9.3 NNW 32 43 17 23 1013.6 1012.2 0.0
14/12:30pm 22.0 15.0 4.1 31 9.0 NNW 30 43 16 23 1013.9 1012.5 0.0
14/12:05pm 21.6 14.8 3.3 30 9.0 NNW 28 46 15 25 1014.5 1013.0 0.0
14/12:00pm 20.9 15.4 4.0 33 8.4 NNW 22 37 12 20 1014.6 1013.1 0.0
14/11:30am 20.2 14.2 3.4 33 8.2 NW 24 39 13 21 1015.2 1013.8 0.0
14/11:00am 20.0 14.1 4.1 35 7.8 NNW 24 33 13 18 1015.5 1014.1 0.0
14/10:30am 19.4 14.2 3.6 35 7.7 WNW 20 33 11 18 1015.6 1014.2 0.0
14/10:00am 18.1 13.0 3.2 37 7.1 NW 19 32 10 17 1015.8 1014.4 0.0
14/09:30am 17.0 11.8 3.3 40 6.5 WNW 20 28 11 15 1016.2 1014.7 0.0
14/09:00am 15.8 10.7 3.3 43 5.9 WNW 19 28 10 15 1016.3 1014.9 0.0
14/08:30am 15.2 10.5 3.4 45 5.5 W 17 26 9 14 1016.0 1014.6 0.0
14/08:00am 14.4 10.1 3.2 47 5.2 NNW 15 22 8 12 1016.0 1014.6 0.0
14/07:30am 12.8 8.3 2.4 49 4.7 N 15 20 8 11 1016.2 1014.7 0.0
14/07:00am 11.6 6.7 2.1 52 4.2 NNE 17 26 9 14 1015.6 1014.2 0.0
14/06:30am 10.3 6.5 1.9 56 3.7 NE 11 13 6 7 1015.3 1013.9 0.0
14/06:00am 8.3 4.9 1.9 64 2.7 NE 9 11 5 6 1015.1 1013.7 0.0
14/05:30am 7.3 4.3 0.5 62 2.8 W 6 11 3 6 1014.8 1013.4 0.0
14/05:00am 8.5 5.4 1.2 60 3.1 WNW 7 9 4 5 1014.6 1013.1 0.0
14/04:30am 9.8 5.9 0.9 54 3.8 WNW 11 15 6 8 1014.6 1013.1 0.0
14/04:00am 8.9 4.9 0.4 55 3.5 NW 11 13 6 7 1014.7 1013.2 0.0
14/03:30am 11.2 7.8 1.7 52 4.2 NE 9 11 5 6 1014.9 1013.5 0.0
14/03:00am 9.1 5.5 0.3 54 3.7 W 9 17 5 9 1014.9 1013.5 0.0
14/02:30am 10.5 6.5 0.5 50 4.2 N 11 13 6 7 1015.0 1013.6 0.0
14/02:00am 9.9 6.3 0.5 52 4.0 N 9 11 5 6 1015.2 1013.8 0.0
14/01:30am 10.7 6.3 0.2 48 4.4 NW 13 17 7 9 1015.2 1013.8 0.0
14/01:00am 12.4 7.7 0.8 45 5.0 W 15 19 8 10 1015.4 1014.0 0.0
14/12:30am 12.6 7.5 1.0 45 5.1 W 17 22 9 12 1015.9 1014.5 0.0
14/12:00am 12.6 9.0 0.7 44 5.2 W 9 13 5 7 1016.2 1014.7 0.0
 
Date/Time
EDT
Temp
°C
App
Temp
°C
Dew
Point
°C
Rel
Hum
%
Delta-T
°C
Wind Press
QNH
hPa
Press
MSL
hPa
Rain since
9am
mm
Dir  Spd
km/h
Gust
km/h
Spd
kts
Gust
kts
13/11:30pm 13.1 9.1 0.5 42 5.5 WNW 11 15 6 8 1016.2 1014.7 0.0
13/11:00pm 13.0 8.9 0.1 41 5.5 W 11 24 6 13 1016.0 1014.6 0.0
13/10:30pm 12.9 8.0 -0.4 40 5.6 NW 15 26 8 14 1016.0 1014.6 0.0
13/10:00pm 13.2 7.9 -0.4 39 5.8 WNW 17 30 9 16 1015.7 1014.3 0.0
13/09:30pm 13.8 7.9 -0.6 37 6.1 NW 20 30 11 16 1015.2 1013.8 0.0
13/09:00pm 13.9 7.9 -1.3 35 6.4 WNW 20 30 11 16 1014.9 1013.5 0.0
13/08:30pm 14.2 7.5 -1.0 35 6.4 NW 24 32 13 17 1014.6 1013.1 0.0
13/08:00pm 14.8 7.7 -0.9 34 6.7 WNW 26 35 14 19 1014.4 1012.9 0.0
13/07:30pm 15.5 7.7 -0.7 33 7.0 WNW 30 44 16 24 1013.9 1012.5 0.0
13/07:00pm 16.5 9.1 -0.7 31 7.5 WNW 28 35 15 19 1013.6 1012.2 0.0
13/06:30pm 17.1 9.3 -1.1 29 7.9 WNW 30 39 16 21 1013.3 1011.9 0.0
13/06:00pm 18.0 9.9 -0.3 29 8.2 WNW 32 46 17 25 1012.7 1011.2 0.0
13/05:30pm 18.3 9.1 -1.0 27 8.5 WNW 37 50 20 27 1012.1 1010.7 0.0
13/05:00pm 18.6 10.7 -1.3 26 8.7 NW 30 46 16 25 1012.2 1010.8 0.0
13/04:30pm 19.1 10.8 -1.4 25 9.0 WNW 32 41 17 22 1011.8 1010.4 0.0
13/04:00pm 19.4 11.5 -1.7 24 9.3 WNW 30 43 16 23 1011.6 1010.1 0.0
13/03:32pm 19.8 12.3 -1.3 24 9.4 NW 28 46 15 25 1011.9 1010.5 0.0
13/03:30pm 19.9 12.0 -1.8 23 9.5 NW 30 41 16 22 1011.9 1010.5 0.0
13/03:17pm 19.0 11.0 -2.0 24 9.1 WNW 30 48 16 26 1011.9 1010.5 0.0
13/03:00pm 19.4 10.5 -2.2 23 9.4 WNW 35 48 19 26 1012.0 1010.6 0.0
13/02:30pm 19.4 11.4 -2.2 23 9.4 WNW 30 43 16 23 1012.1 1010.7 0.0
13/02:00pm 18.8 11.1 -3.3 22 9.3 WNW 28 39 15 21 1012.5 1011.0 0.0
13/01:30pm 18.9 11.8 -4.5 20 9.6 WNW 24 37 13 20 1012.8 1011.3 0.0
13/01:00pm 18.3 10.1 -3.8 22 9.2 WNW 30 44 16 24 1012.9 1011.4 0.0
13/12:30pm 17.2 9.7 -4.7 22 8.8 WNW 26 35 14 19 1013.2 1011.8 0.0
13/12:00pm 16.5 9.9 -3.6 25 8.3 NNW 22 35 12 19 1013.4 1012.0 0.0
13/11:30am 15.7 9.1 -3.2 27 7.8 NW 22 33 12 18 1014.1 1012.7 0.0
13/11:00am 14.4 6.7 -2.9 30 7.1 NW 28 41 15 22 1014.5 1013.0 0.0
13/10:30am 14.5 8.0 -2.8 30 7.1 NW 22 33 12 18 1014.8 1013.4 0.0
13/10:00am 12.3 6.9 -4.3 31 6.4 NW 15 24 8 13 1014.6 1013.1 0.0
13/09:30am 12.3 6.1 -3.5 33 6.2 NW 20 28 11 15 1014.4 1012.9 0.0
13/09:00am 11.3 5.0 -4.0 34 5.9 WNW 20 30 11 16 1014.5 1013.0 0.0
13/08:30am 10.6 3.9 -4.2 35 5.6 WNW 22 30 12 16 1014.4 1012.9 0.0
13/08:00am 10.1 3.1 -3.9 37 5.3 WNW 24 32 13 17 1013.8 1012.4 0.0
13/07:30am 9.7 3.3 -4.6 36 5.3 WNW 20 28 11 15 1013.6 1012.2 0.0
13/07:00am 9.3 3.2 -4.3 38 5.1 W 19 28 10 15 1013.3 1011.9 0.0
13/06:30am 8.6 2.4 -4.6 39 4.9 W 19 24 10 13 1013.1 1011.6 0.0
13/06:00am 8.2 2.4 -4.6 40 4.7 W 17 26 9 14 1012.7 1011.2 0.0
13/05:30am 8.3 1.7 -3.5 43 4.4 WNW 22 30 12 16 1011.8 1010.4 0.0
13/05:00am 7.6 2.7 -3.0 47 4.0 WNW 13 20 7 11 1011.9 1010.5 0.0
13/04:30am 8.0 2.6 -1.5 51 3.7 NW 17 22 9 12 1011.8 1010.4 0.0
13/04:00am 9.1 4.1 -1.0 49 4.1 WNW 15 19 8 10 1011.9 1010.5 0.0
13/03:30am 9.1 4.8 -1.6 47 4.3 W 11 17 6 9 1011.6 1010.1 0.0
13/03:00am 10.2 6.0 -1.2 45 4.6 W 11 20 6 11 1011.5 1010.0 0.0
13/02:30am 11.3 5.3 -1.5 41 5.2 WNW 20 32 11 17 1011.3 1009.8 0.0
13/02:00am 11.5 5.1 -1.6 40 5.3 WNW 22 30 12 16 1011.1 1009.6 0.0
13/01:30am 11.9 5.9 -1.9 38 5.6 WNW 20 33 11 18 1011.3 1009.8 0.0
13/01:00am 11.7 6.2 -2.1 38 5.6 WNW 17 22 9 12 1011.3 1009.8 0.0
13/12:30am 11.5 6.3 -2.7 37 5.6 W 15 17 8 9 1011.3 1009.8 0.0
13/12:00am 12.3 6.7 -3.1 34 6.1 W 17 24 9 13 1011.3 1009.8 0.0

Other formats

Comma delimited format used in spreadsheet applications
http://www.bom.gov.au/fwo/IDN60801/IDN60801.94926.axf

JavaScript Object Notation format (JSON) in row-major order
http://www.bom.gov.au/fwo/IDN60801/IDN60801.94926.json

Data quality

Most of these data are generated automatically and are frequently updated. Quality checks on data are not normally performed. It is possible for incorrect values to appear. Refer to information at About Latest Weather Observations and please check the disclaimer before using these data.